createdAt,value
2019-01-26T00:01:58.925Z,63.40
2019-01-26T00:04:27.597Z,74.17
2019-01-26T00:06:56.183Z,60.80
2019-01-26T00:09:25.360Z,55.67
2019-01-26T00:11:54.441Z,54.37
2019-01-26T00:14:23.033Z,57.33
2019-01-26T00:16:51.710Z,60.10
2019-01-26T00:19:20.227Z,60.83
2019-01-26T00:21:48.909Z,60.07
2019-01-26T00:24:17.513Z,60.70
2019-01-26T00:26:46.111Z,55.67
2019-01-26T00:29:14.580Z,70.67
2019-01-26T00:31:43.285Z,58.00
2019-01-26T00:34:11.930Z,68.07
2019-01-26T00:36:40.546Z,56.30
2019-01-26T00:39:49.083Z,63.20
2019-01-26T00:42:17.694Z,56.17
2019-01-26T00:44:46.265Z,72.57
2019-01-26T00:47:14.922Z,62.10
2019-01-26T00:49:43.603Z,60.27
2019-01-26T00:52:12.263Z,67.27
2019-01-26T00:54:40.742Z,59.10
2019-01-26T00:57:09.363Z,58.73
2019-01-26T00:59:37.983Z,65.23
2019-01-26T01:02:06.683Z,60.80
2019-01-26T01:04:35.387Z,64.17
2019-01-26T01:07:04.161Z,60.73
2019-01-26T01:09:32.737Z,68.57
2019-01-26T01:12:01.323Z,60.07
2019-01-26T01:14:29.836Z,60.93
2019-01-26T01:16:58.526Z,69.60
2019-01-26T01:19:27.159Z,54.00
2019-01-26T01:21:55.681Z,67.53
2019-01-26T01:24:24.326Z,63.23
2019-01-26T01:26:52.873Z,66.70
2019-01-26T01:29:21.546Z,68.43
2019-01-26T01:31:50.162Z,62.13
2019-01-26T01:34:18.781Z,63.30
2019-01-26T01:36:47.302Z,59.57
2019-01-26T01:39:15.937Z,61.83
2019-01-26T01:41:44.493Z,69.43
2019-01-26T01:44:13.203Z,58.27
2019-01-26T01:46:43.043Z,65.30
2019-01-26T01:49:12.424Z,63.07
2019-01-26T01:51:41.096Z,62.47
2019-01-26T01:54:09.631Z,59.50
2019-01-26T01:56:38.247Z,51.37
2019-01-26T01:59:06.830Z,58.60
2019-01-26T02:01:35.438Z,51.70
2019-01-26T02:04:03.979Z,61.83
2019-01-26T02:06:32.634Z,55.90
2019-01-26T02:09:01.208Z,56.80
2019-01-26T02:11:29.840Z,54.60
2019-01-26T02:13:58.452Z,69.87
2019-01-26T02:16:27.508Z,66.33
2019-01-26T02:18:56.079Z,54.83
2019-01-26T02:21:24.703Z,55.27
2019-01-26T02:23:53.269Z,60.30
2019-01-26T02:26:21.762Z,53.00
2019-01-26T02:28:50.412Z,59.27
2019-01-26T02:31:19.017Z,64.70
2019-01-26T02:33:47.644Z,62.43
2019-01-26T02:36:16.405Z,55.53
2019-01-26T02:38:45.050Z,60.63
2019-01-26T02:41:13.763Z,59.23
2019-01-26T02:43:42.501Z,62.53
2019-01-26T02:46:11.042Z,65.23
2019-01-26T02:48:39.714Z,61.47
2019-01-26T02:51:08.355Z,63.57
2019-01-26T02:53:37.035Z,59.00
2019-01-26T02:56:05.709Z,65.97
2019-01-26T02:58:34.285Z,72.50
2019-01-26T03:01:02.943Z,70.63
2019-01-26T03:03:31.596Z,67.50
2019-01-26T03:06:00.143Z,63.33
2019-01-26T03:08:28.882Z,65.67
2019-01-26T03:10:57.383Z,71.53
2019-01-26T03:13:26.086Z,63.37
2019-01-26T03:15:54.643Z,69.27
2019-01-26T03:18:23.229Z,65.03
2019-01-26T03:20:51.888Z,57.37
2019-01-26T03:23:20.584Z,59.53
2019-01-26T03:25:49.238Z,60.53
2019-01-26T03:28:17.882Z,63.30
2019-01-26T03:30:46.518Z,60.50
2019-01-26T03:33:15.150Z,67.30
2019-01-26T03:35:43.628Z,68.20
2019-01-26T03:38:12.335Z,63.40
2019-01-26T03:40:41.017Z,55.73
2019-01-26T03:43:09.655Z,66.20
2019-01-26T03:45:38.211Z,55.30
2019-01-26T03:48:06.847Z,70.57
2019-01-26T03:50:35.534Z,71.83
2019-01-26T03:53:04.130Z,76.30
2019-01-26T03:55:32.754Z,62.13
2019-01-26T03:58:01.319Z,60.50
2019-01-26T04:00:29.958Z,67.73
2019-01-26T04:02:58.588Z,75.03
2019-01-26T04:05:27.155Z,65.07
2019-01-26T04:07:55.794Z,70.03
2019-01-26T04:10:24.361Z,68.80
2019-01-26T04:12:52.963Z,62.43
2019-01-26T04:15:21.684Z,63.10
2019-01-26T04:17:50.366Z,72.33
2019-01-26T04:20:59.006Z,68.67
2019-01-26T04:23:27.955Z,74.60
2019-01-26T04:25:56.713Z,61.27
2019-01-26T04:28:25.445Z,68.97
2019-01-26T04:30:54.165Z,85.10
2019-01-26T04:33:22.770Z,82.27
2019-01-26T04:35:51.315Z,85.23
2019-01-26T04:38:19.881Z,88.27
2019-01-26T04:40:48.541Z,69.37
2019-01-26T04:43:17.087Z,77.97
2019-01-26T04:45:45.841Z,81.00
2019-01-26T04:48:14.506Z,79.47
2019-01-26T04:50:43.140Z,68.10
2019-01-26T04:53:11.777Z,72.00
2019-01-26T04:55:40.486Z,81.07
2019-01-26T04:58:09.042Z,75.57
2019-01-26T05:00:37.672Z,67.60
2019-01-26T05:03:06.931Z,82.97
2019-01-26T05:05:35.662Z,70.27
2019-01-26T05:08:04.539Z,73.07
2019-01-26T05:10:33.235Z,76.07
2019-01-26T05:13:01.782Z,78.53
2019-01-26T05:15:30.418Z,75.87
2019-01-26T05:17:58.962Z,65.23
2019-01-26T05:20:27.535Z,77.20
2019-01-26T05:22:56.134Z,72.63
2019-01-26T05:25:24.676Z,70.37
2019-01-26T05:27:53.339Z,65.80
2019-01-26T05:31:01.838Z,66.57
2019-01-26T05:33:30.441Z,58.67
2019-01-26T05:35:59.031Z,77.37
2019-01-26T05:38:27.650Z,78.70
2019-01-26T05:40:56.256Z,89.57
2019-01-26T05:43:24.754Z,80.83
2019-01-26T05:45:53.316Z,80.77
2019-01-26T05:48:22.324Z,81.47
2019-01-26T05:50:50.959Z,108.67
2019-01-26T05:53:19.502Z,84.93
2019-01-26T05:55:48.192Z,75.47
2019-01-26T05:58:16.998Z,69.97
2019-01-26T06:00:45.753Z,78.13
2019-01-26T06:03:14.242Z,79.33
2019-01-26T06:05:43.116Z,80.50
2019-01-26T06:08:11.755Z,89.23
2019-01-26T06:11:07.453Z,79.33
2019-01-26T06:16:45.260Z,85.73
2019-01-26T06:19:14.419Z,77.13
2019-01-26T06:21:43.396Z,89.37
2019-01-26T06:24:11.933Z,83.00
2019-01-26T06:26:40.626Z,80.73
2019-01-26T06:29:28.993Z,94.03
2019-01-26T06:31:58.043Z,84.80
2019-01-26T06:37:35.922Z,91.47
2019-01-26T06:40:38.412Z,84.70
2019-01-26T06:42:56.344Z,78.00
2019-01-26T06:45:25.126Z,88.33
2019-01-26T06:47:53.729Z,81.87
2019-01-26T06:51:02.211Z,79.27
2019-01-26T06:53:30.993Z,78.00
2019-01-26T06:55:59.608Z,80.30
2019-01-26T06:58:28.301Z,79.23
2019-01-26T07:00:56.827Z,82.73
2019-01-26T07:03:25.443Z,78.20
2019-01-26T07:08:32.968Z,88.90
2019-01-26T07:11:02.210Z,87.20
2019-01-26T07:13:31.880Z,77.93
2019-01-26T07:18:36.449Z,73.47
2019-01-26T07:21:05.077Z,85.23
2019-01-26T07:23:33.611Z,82.33
2019-01-26T07:26:02.194Z,86.10
2019-01-26T07:28:31.182Z,87.47
2019-01-26T07:31:00.028Z,76.30
2019-01-26T07:33:28.595Z,80.53
2019-01-26T07:35:57.108Z,76.30
2019-01-26T07:38:25.726Z,71.43
2019-01-26T07:40:54.266Z,87.30
2019-01-26T07:43:22.756Z,69.03
2019-01-26T07:45:51.288Z,72.07
2019-01-26T07:48:55.354Z,98.40
2019-01-26T07:51:12.115Z,72.37
2019-01-26T07:53:40.816Z,74.63
2019-01-26T07:56:09.401Z,96.30
2019-01-26T07:58:37.864Z,85.90
2019-01-26T08:01:06.486Z,87.40
2019-01-26T08:03:35.023Z,80.83
2019-01-26T08:06:03.898Z,85.90
2019-01-26T08:08:32.615Z,77.37
2019-01-26T08:11:01.464Z,78.20
2019-01-26T08:13:30.138Z,82.47
2019-01-26T08:15:58.824Z,73.07
2019-01-26T08:18:27.596Z,85.17
2019-01-26T08:20:56.119Z,76.30
2019-01-26T08:23:24.781Z,83.10
2019-01-26T08:25:53.329Z,96.27
2019-01-26T08:28:21.982Z,72.80
2019-01-26T08:30:50.561Z,94.93
2019-01-26T08:33:19.191Z,73.40
2019-01-26T08:35:48.118Z,117.00
2019-01-26T08:38:16.686Z,73.40
2019-01-26T08:43:38.106Z,78.97
2019-01-26T08:46:06.665Z,84.30
2019-01-26T08:48:35.285Z,79.70
2019-01-26T08:51:03.917Z,73.97
2019-01-26T08:53:32.619Z,95.17
2019-01-26T08:56:01.464Z,100.70
2019-01-26T08:58:30.126Z,96.07
2019-01-26T09:00:58.785Z,94.80
2019-01-26T09:03:46.505Z,86.13
2019-01-26T09:08:53.906Z,89.53
2019-01-26T09:11:22.561Z,74.37
2019-01-26T09:13:51.274Z,62.43
2019-01-26T09:16:19.942Z,84.30
2019-01-26T09:18:48.443Z,79.07
2019-01-26T09:21:17.004Z,72.40
2019-01-26T09:23:45.545Z,84.20
2019-01-26T09:26:14.087Z,73.50
2019-01-26T09:28:42.667Z,79.33
2019-01-26T09:31:11.307Z,68.83
2019-01-26T09:33:39.958Z,76.97
2019-01-26T09:36:08.575Z,78.10
2019-01-26T09:38:37.158Z,69.90
2019-01-26T09:44:02.885Z,62.43
2019-01-26T09:46:31.444Z,64.60
2019-01-26T09:49:00.220Z,50.07
2019-01-26T09:51:28.770Z,63.97
2019-01-26T09:53:57.365Z,49.77
2019-01-26T09:56:25.965Z,50.53
2019-01-26T09:58:54.429Z,61.00
2019-01-26T10:01:22.936Z,52.63
2019-01-26T10:03:51.532Z,44.33
2019-01-26T10:06:39.314Z,41.53
2019-01-26T10:09:28.727Z,49.87
2019-01-26T10:11:57.288Z,50.53
2019-01-26T10:14:25.847Z,41.47
2019-01-26T10:16:54.474Z,41.23
2019-01-26T10:19:23.087Z,44.63
2019-01-26T10:21:51.577Z,38.03
2019-01-26T10:24:20.116Z,42.63
2019-01-26T10:26:48.772Z,39.90
2019-01-26T10:29:17.396Z,41.53
2019-01-26T10:31:45.952Z,44.33
2019-01-26T10:34:14.477Z,49.83
2019-01-26T10:39:32.242Z,42.33
2019-01-26T10:44:50.028Z,37.57
2019-01-26T10:47:18.697Z,48.67
2019-01-26T10:49:47.350Z,36.30
2019-01-26T10:52:15.988Z,34.47
2019-01-26T10:54:45.012Z,34.43
2019-01-26T10:57:13.745Z,31.77
2019-01-26T10:59:42.349Z,39.00
2019-01-26T11:02:11.155Z,33.27
2019-01-26T11:04:39.839Z,29.30
2019-01-26T11:07:08.489Z,40.80
2019-01-26T11:09:37.143Z,32.47
2019-01-26T11:12:05.948Z,42.40
2019-01-26T11:14:34.614Z,32.60
2019-01-26T11:17:03.323Z,32.50
2019-01-26T11:19:31.968Z,33.90
2019-01-26T11:22:19.917Z,34.60
2019-01-26T11:24:48.495Z,33.53
2019-01-26T11:27:17.197Z,30.77
2019-01-26T11:29:45.731Z,28.13
2019-01-26T11:32:14.340Z,35.37
2019-01-26T11:34:42.963Z,29.73
2019-01-26T11:37:11.515Z,26.00
2019-01-26T11:42:15.674Z,32.40
2019-01-26T11:47:23.241Z,21.17
2019-01-26T11:52:27.165Z,41.83
2019-01-26T11:57:34.642Z,28.20
2019-01-26T12:10:43.856Z,19.37
2019-01-26T12:13:12.442Z,31.07
2019-01-26T12:15:41.085Z,22.80
2019-01-26T12:18:09.839Z,23.60
2019-01-26T12:20:38.450Z,24.00
2019-01-26T12:23:07.003Z,26.33
2019-01-26T12:25:35.618Z,22.63
2019-01-26T12:28:04.182Z,21.40
2019-01-26T12:30:32.706Z,23.37
2019-01-26T12:33:01.384Z,24.07
2019-01-26T12:35:29.994Z,24.13
2019-01-26T12:37:58.604Z,18.90
2019-01-26T12:40:27.184Z,24.13
2019-01-26T12:42:55.803Z,23.57
2019-01-26T12:45:24.417Z,20.73
2019-01-26T12:47:52.977Z,20.87
2019-01-26T12:50:21.623Z,22.73
2019-01-26T12:52:50.213Z,23.77
2019-01-26T12:55:58.747Z,30.00
2019-01-26T12:58:27.370Z,19.57
2019-01-26T13:00:56.119Z,26.30
2019-01-26T13:03:24.747Z,20.80
2019-01-26T13:06:33.242Z,20.47
2019-01-26T13:09:01.914Z,16.97
2019-01-26T13:11:30.456Z,17.47
2019-01-26T13:13:59.178Z,20.73
2019-01-26T13:16:28.172Z,23.70
2019-01-26T13:18:58.094Z,21.63
2019-01-26T13:21:26.651Z,18.40
2019-01-26T13:23:55.653Z,18.30
2019-01-26T13:26:24.135Z,17.40
2019-01-26T13:28:52.796Z,21.60
2019-01-26T13:31:21.355Z,18.93
2019-01-26T13:33:50.064Z,17.70
2019-01-26T13:36:18.744Z,18.00
2019-01-26T13:38:47.466Z,14.63
2019-01-26T13:41:16.303Z,15.57
2019-01-26T13:44:04.613Z,17.03
2019-01-26T13:46:33.115Z,16.97
2019-01-26T13:49:01.867Z,15.60
2019-01-26T13:51:30.552Z,25.93
2019-01-26T13:54:21.356Z,17.23
2019-01-26T13:56:52.844Z,16.53
2019-01-26T13:59:21.462Z,16.23
2019-01-26T14:01:50.277Z,18.13
2019-01-26T14:04:18.728Z,19.37
2019-01-26T14:06:47.437Z,21.60
2019-01-26T14:09:15.990Z,15.57
2019-01-26T14:11:44.623Z,17.80
2019-01-26T14:14:13.281Z,22.47
2019-01-26T14:16:42.179Z,19.23
2019-01-26T14:19:10.730Z,17.63
2019-01-26T14:21:39.270Z,16.57
2019-01-26T14:24:08.183Z,13.50
2019-01-26T14:26:36.761Z,16.53
2019-01-26T14:29:05.559Z,18.33
2019-01-26T14:31:34.130Z,16.40
2019-01-26T14:34:02.610Z,18.30
2019-01-26T14:36:31.077Z,16.20
2019-01-26T14:38:59.704Z,15.20
2019-01-26T14:41:28.310Z,17.83
2019-01-26T14:43:56.914Z,17.07
2019-01-26T14:46:25.553Z,17.93
2019-01-26T14:48:54.042Z,19.07
2019-01-26T14:51:22.770Z,16.27
2019-01-26T14:53:51.632Z,16.67
2019-01-26T14:56:20.274Z,20.00
2019-01-26T14:58:48.894Z,17.10
2019-01-26T15:01:17.497Z,15.60
2019-01-26T15:03:46.040Z,18.23
2019-01-26T15:06:14.682Z,17.87
2019-01-26T15:08:43.268Z,18.30
2019-01-26T15:11:11.874Z,17.07
2019-01-26T15:13:40.419Z,17.60
2019-01-26T15:19:00.304Z,16.17
2019-01-26T15:21:28.868Z,16.60
2019-01-26T15:23:57.668Z,19.83
2019-01-26T15:26:26.441Z,19.70
2019-01-26T15:28:55.264Z,16.70
2019-01-26T15:31:23.808Z,17.03
2019-01-26T15:33:53.041Z,16.40
2019-01-26T15:36:21.763Z,15.03
2019-01-26T15:38:50.459Z,16.97
2019-01-26T15:41:19.117Z,16.13
2019-01-26T15:43:48.063Z,16.70
2019-01-26T15:46:16.717Z,19.70
2019-01-26T15:48:45.667Z,22.03
2019-01-26T15:51:14.222Z,21.93
2019-01-26T15:53:42.831Z,26.23
2019-01-26T15:56:11.381Z,18.00
2019-01-26T15:58:40.012Z,19.20
2019-01-26T16:01:08.551Z,16.80
2019-01-26T16:03:37.161Z,16.07
2019-01-26T16:06:05.922Z,24.97
2019-01-26T16:08:34.609Z,21.73
2019-01-26T16:11:03.541Z,23.87
2019-01-26T16:13:32.045Z,17.97
2019-01-26T16:16:41.157Z,22.40
2019-01-26T16:19:09.668Z,20.17
2019-01-26T16:21:38.219Z,20.10
2019-01-26T16:24:06.826Z,22.10
2019-01-26T16:26:35.373Z,22.63
2019-01-26T16:29:04.080Z,23.03
2019-01-26T16:31:32.683Z,21.53
2019-01-26T16:34:01.268Z,25.70
2019-01-26T16:36:29.864Z,33.23
2019-01-26T16:38:58.465Z,22.00
2019-01-26T16:41:27.053Z,26.33
2019-01-26T16:43:55.903Z,31.20
2019-01-26T16:46:24.518Z,29.53
2019-01-26T16:48:53.310Z,29.33
2019-01-26T16:51:21.866Z,24.53
2019-01-26T16:53:50.427Z,26.23
2019-01-26T16:56:19.131Z,28.83
2019-01-26T16:58:47.759Z,27.53
2019-01-26T17:01:16.584Z,28.53
2019-01-26T17:03:45.202Z,25.80
2019-01-26T17:08:53.269Z,26.33
2019-01-26T17:11:21.871Z,29.47
2019-01-26T17:13:50.549Z,27.43
2019-01-26T17:16:19.288Z,29.47
2019-01-26T17:18:47.870Z,35.10
2019-01-26T17:21:16.439Z,29.07
2019-01-26T17:23:45.343Z,33.23
2019-01-26T17:26:13.950Z,27.90
2019-01-26T17:28:42.622Z,32.23
2019-01-26T17:31:11.247Z,35.13
2019-01-26T17:33:39.895Z,28.23
2019-01-26T17:36:08.599Z,34.07
2019-01-26T17:38:37.289Z,34.80
2019-01-26T17:41:05.846Z,33.83
2019-01-26T17:43:34.337Z,36.73
2019-01-26T17:46:04.217Z,33.00
2019-01-26T17:48:33.307Z,45.83
2019-01-26T17:51:01.850Z,32.93
2019-01-26T17:53:30.426Z,35.17
2019-01-26T17:55:59.411Z,30.73
2019-01-26T17:58:28.018Z,38.67
2019-01-26T18:03:37.084Z,34.27
2019-01-26T18:06:06.058Z,32.67
2019-01-26T18:11:23.793Z,30.93
2019-01-26T18:13:52.532Z,30.17
2019-01-26T18:16:21.252Z,30.37
2019-01-26T18:18:49.841Z,34.87
2019-01-26T18:21:18.546Z,31.60
2019-01-26T18:23:47.168Z,28.20
2019-01-26T18:26:35.090Z,28.27
2019-01-26T18:29:03.797Z,29.20
2019-01-26T18:31:32.446Z,32.97
2019-01-26T18:34:01.139Z,32.17
2019-01-26T18:36:29.603Z,33.90
2019-01-26T18:38:58.153Z,33.20
2019-01-26T18:41:26.738Z,27.10
2019-01-26T18:43:55.328Z,32.43
2019-01-26T18:46:23.897Z,24.50
2019-01-26T18:48:52.530Z,28.10
2019-01-26T18:51:21.358Z,28.80
2019-01-26T18:54:30.168Z,30.07
2019-01-26T18:56:58.958Z,27.53
2019-01-26T18:59:27.815Z,26.37
2019-01-26T19:04:45.676Z,26.47
2019-01-26T19:10:24.357Z,30.60
2019-01-26T19:12:53.223Z,30.00
2019-01-26T19:16:01.727Z,26.30
2019-01-26T19:18:30.462Z,30.47
2019-01-26T19:21:03.132Z,30.70
2019-01-26T19:23:29.545Z,27.97
2019-01-26T19:25:58.454Z,27.70
2019-01-26T19:28:27.306Z,27.80
2019-01-26T19:30:55.820Z,24.57
2019-01-26T19:33:24.712Z,25.17
2019-01-26T19:38:51.116Z,27.40
2019-01-26T19:41:19.738Z,25.60
2019-01-26T19:43:48.340Z,28.97
2019-01-26T19:46:16.920Z,29.73
2019-01-26T19:51:33.840Z,30.03
2019-01-26T19:54:02.731Z,37.30
2019-01-26T19:56:31.327Z,29.23
2019-01-26T19:58:59.963Z,28.00
2019-01-26T20:01:28.492Z,28.67
2019-01-26T20:03:56.993Z,25.47
2019-01-26T20:11:52.730Z,30.63
2019-01-26T20:14:21.373Z,28.47
2019-01-26T20:16:50.307Z,29.37
2019-01-26T20:19:18.838Z,28.43
2019-01-26T20:21:47.769Z,31.23
2019-01-26T20:24:16.406Z,27.77
2019-01-26T20:26:45.106Z,25.67
2019-01-26T20:29:13.677Z,24.73
2019-01-26T20:31:42.240Z,28.43
2019-01-26T20:34:10.880Z,29.20
2019-01-26T20:36:39.438Z,29.07
2019-01-26T20:39:49.439Z,28.37
2019-01-26T20:42:18.026Z,25.63
2019-01-26T20:44:46.613Z,26.53
2019-01-26T20:47:15.086Z,23.67
2019-01-26T20:49:43.766Z,24.20
2019-01-26T20:52:12.346Z,24.97
2019-01-26T20:54:41.272Z,24.53
2019-01-26T20:57:09.981Z,24.20
2019-01-26T20:59:39.848Z,27.20
2019-01-26T21:04:44.132Z,29.27
2019-01-26T21:09:48.213Z,26.63
2019-01-26T21:12:17.756Z,28.17
2019-01-26T21:15:05.679Z,29.63
2019-01-26T21:17:34.296Z,27.23
2019-01-26T21:20:02.847Z,31.13
2019-01-26T21:22:31.544Z,32.03
2019-01-26T21:25:00.183Z,30.37
2019-01-26T21:27:28.746Z,35.20
2019-01-26T21:29:57.287Z,34.87
2019-01-26T21:32:25.897Z,31.37
2019-01-26T21:34:54.596Z,33.77
2019-01-26T21:40:37.267Z,38.43
2019-01-26T21:43:05.982Z,37.47
2019-01-26T21:45:34.629Z,42.43
2019-01-26T21:48:03.290Z,40.63
2019-01-26T21:50:31.797Z,34.40
2019-01-26T21:53:00.377Z,36.80
2019-01-26T21:55:28.825Z,36.87
2019-01-26T21:57:57.332Z,35.70
2019-01-26T22:01:05.834Z,38.70
2019-01-26T22:03:34.915Z,40.73
2019-01-26T22:06:03.910Z,34.93
2019-01-26T22:08:32.361Z,40.07
2019-01-26T22:11:00.972Z,33.53
2019-01-26T22:13:29.505Z,34.37
2019-01-26T22:15:57.978Z,36.87
2019-01-26T22:18:26.523Z,40.30
2019-01-26T22:20:55.058Z,34.77
2019-01-26T22:23:23.489Z,39.83
2019-01-26T22:25:52.051Z,44.53
2019-01-26T22:28:20.519Z,42.53
2019-01-26T22:30:49.096Z,38.10
2019-01-26T22:33:17.704Z,41.70
2019-01-26T22:35:46.264Z,43.00
2019-01-26T22:38:15.512Z,37.30
2019-01-26T22:40:44.018Z,38.20
2019-01-26T22:43:12.562Z,39.13
2019-01-26T22:45:41.202Z,41.33
2019-01-26T22:48:09.728Z,38.80
2019-01-26T22:50:38.266Z,37.43
2019-01-26T22:53:06.905Z,40.13
2019-01-26T22:55:35.449Z,40.50
2019-01-26T22:58:04.147Z,42.10
2019-01-26T23:01:12.634Z,45.00
2019-01-26T23:04:21.268Z,46.53
2019-01-26T23:07:29.779Z,49.20
2019-01-26T23:10:38.410Z,45.23
2019-01-26T23:13:27.849Z,49.13
2019-01-26T23:16:35.051Z,47.90
2019-01-26T23:22:32.882Z,57.10
2019-01-26T23:25:41.357Z,55.20
2019-01-26T23:28:48.606Z,53.17
2019-01-26T23:31:57.258Z,52.60
2019-01-26T23:34:25.912Z,53.40
2019-01-26T23:37:09.063Z,49.20
2019-01-26T23:39:24.902Z,60.93
2019-01-26T23:41:53.361Z,58.60
2019-01-26T23:44:22.016Z,50.27
2019-01-26T23:46:50.508Z,53.80
2019-01-26T23:49:19.091Z,49.60
2019-01-26T23:51:47.763Z,49.80
2019-01-26T23:54:16.416Z,51.67
2019-01-26T23:56:45.259Z,51.57
2019-01-26T23:59:13.784Z,48.17
